aviador You're here:

YCAS Decoded Metar

in
Report Time2018-07-22 02:00:00
UTC Time2018-07-22 03:02:25
Flight Rules unknown UNKNOWN
Wind040° at 03 kt
W.Decomp.*RWY 10: 1.5 kt HW 2.6 kt LCW
W.Rank040° ranks 36
Current wind is below 040° avg. (5.2)
VisibilityN/A
Phenomena:N/A
Clouds:N/A
Expected CloudBase > 5,200 ft AGL from Temp-Dew spread
CeilingNone
Temp18°C
Dew Point05°C (43% RH)
AAT15.8°C
QNH1023 hPa
Raw Report
METAR YCAS 220200Z AUTO 04003KT //// // ////// 18/05 Q1023=

Extra information for YCAS:More info

Social comments